Time,TemperatureF,DewpointF,PressureIn,WindDirection,WindDirectionDegrees,WindSpeedMPH,WindSpeedGustMPH,Humidity,HourlyPrecipIn,Conditions,Clouds,dailyrainin,SoftwareType,DateUTC
2015-09-01 00:03:00,72.0,70.0,29.26,SSE,166,7.0,10.0,92,-99.99,,,-99.99,,2015-09-01 05:03:00,
2015-09-01 00:13:00,72.0,70.0,29.26,SSE,166,7.0,10.0,92,-99.99,,,-99.99,,2015-09-01 05:13:00,
2015-09-01 00:23:00,72.0,70.0,29.26,South,172,7.0,9.0,93,-99.99,,,-99.99,,2015-09-01 05:23:00,
2015-09-01 00:34:00,71.0,69.0,29.25,South,181,7.0,8.0,93,-99.99,,,-99.99,,2015-09-01 05:34:00,
2015-09-01 00:44:00,71.0,69.0,29.25,South,181,7.0,8.0,93,-99.99,,,-99.99,,2015-09-01 05:44:00,
2015-09-01 00:54:00,71.0,69.0,29.26,South,181,7.0,9.0,94,-99.99,,,-99.99,,2015-09-01 05:54:00,
2015-09-01 01:03:00,71.0,69.0,29.26,South,181,7.0,9.0,94,-99.99,,,-99.99,,2015-09-01 06:03:00,
2015-09-01 01:12:00,71.0,69.0,29.26,South,181,7.0,9.0,94,-99.99,,,-99.99,,2015-09-01 06:12:00,
2015-09-01 01:23:00,71.0,69.0,29.26,South,181,7.0,9.0,94,-99.99,,,-99.99,,2015-09-01 06:23:00,
2015-09-01 01:33:00,71.0,69.0,29.26,SE,145,7.0,10.0,94,-99.99,,,-99.99,,2015-09-01 06:33:00,
2015-09-01 01:44:00,71.0,69.0,29.26,SSE,155,8.0,10.0,94,-99.99,,,-99.99,,2015-09-01 06:44:00,
2015-09-01 01:54:00,71.0,69.0,29.26,SSE,155,8.0,10.0,94,-99.99,,,-99.99,,2015-09-01 06:54:00,
2015-09-01 02:04:00,71.0,69.0,29.26,SSE,163,7.0,10.0,95,-99.99,,,-99.99,,2015-09-01 07:04:00,
2015-09-01 02:12:00,71.0,69.0,29.26,SSE,163,7.0,10.0,95,-99.99,,,-99.99,,2015-09-01 07:12:00,
2015-09-01 02:23:00,70.0,68.0,29.25,SSE,165,3.0,7.0,95,-99.99,,,-99.99,,2015-09-01 07:23:00,
2015-09-01 02:33:00,70.0,68.0,29.25,SSE,165,3.0,7.0,95,-99.99,,,-99.99,,2015-09-01 07:33:00,
2015-09-01 02:44:00,70.0,68.0,29.25,SSE,158,7.0,8.0,95,-99.99,,,-99.99,,2015-09-01 07:44:00,
2015-09-01 02:53:00,69.0,68.0,29.25,SSE,163,7.0,9.0,96,-99.99,,,-99.99,,2015-09-01 07:53:00,
2015-09-01 03:03:00,69.0,68.0,29.24,South,170,7.0,9.0,96,-99.99,,,-99.99,,2015-09-01 08:03:00,
2015-09-01 03:13:00,69.0,68.0,29.25,SSE,152,7.0,10.0,96,-99.99,,,-99.99,,2015-09-01 08:13:00,
2015-09-01 03:23:00,69.0,68.0,29.25,SSE,165,7.0,9.0,96,-99.99,,,-99.99,,2015-09-01 08:23:00,
2015-09-01 03:34:00,69.0,68.0,29.24,South,187,7.0,10.0,96,-99.99,,,-99.99,,2015-09-01 08:34:00,
2015-09-01 03:43:00,69.0,68.0,29.24,South,187,7.0,10.0,96,-99.99,,,-99.99,,2015-09-01 08:43:00,
2015-09-01 03:53:00,69.0,68.0,29.24,South,177,7.0,8.0,96,-99.99,,,-99.99,,2015-09-01 08:53:00,
2015-09-01 04:03:00,69.0,68.0,29.24,South,177,7.0,8.0,96,-99.99,,,-99.99,,2015-09-01 09:03:00,
2015-09-01 04:13:00,69.0,68.0,29.23,SSE,159,7.0,10.0,96,-99.99,,,-99.99,,2015-09-01 09:13:00,
2015-09-01 04:23:00,69.0,68.0,29.23,South,169,6.0,10.0,96,-99.99,,,-99.99,,2015-09-01 09:23:00,
2015-09-01 04:33:00,69.0,68.0,29.23,South,183,7.0,8.0,96,-99.99,,,-99.99,,2015-09-01 09:33:00,
2015-09-01 04:43:00,69.0,68.0,29.23,South,183,7.0,8.0,96,-99.99,,,-99.99,,2015-09-01 09:43:00,
2015-09-01 04:53:00,69.0,68.0,29.23,South,183,7.0,8.0,96,-99.99,,,-99.99,,2015-09-01 09:53:00,
2015-09-01 05:03:00,68.0,67.0,29.23,SSE,160,6.0,9.0,96,-99.99,,,-99.99,,2015-09-01 10:03:00,
2015-09-01 05:13:00,68.0,67.0,29.23,SSE,160,6.0,9.0,96,-99.99,,,-99.99,,2015-09-01 10:13:00,
2015-09-01 05:23:00,68.0,67.0,29.23,SSE,160,6.0,9.0,96,-99.99,,,-99.99,,2015-09-01 10:23:00,
2015-09-01 05:33:00,68.0,67.0,29.23,SSE,160,6.0,9.0,96,-99.99,,,-99.99,,2015-09-01 10:33:00,
2015-09-01 05:43:00,68.0,67.0,29.23,SSE,160,6.0,9.0,96,-99.99,,,-99.99,,2015-09-01 10:43:00,
2015-09-01 06:50:00,66.0,65.0,29.24,North,0,0.0,0.0,97,-99.99,,,-99.99,,2015-09-01 11:50:00,
2015-09-01 07:03:00,66.0,65.0,29.24,North,0,0.0,0.0,97,-99.99,,,-99.99,,2015-09-01 12:03:00,
2015-09-01 07:14:00,66.0,65.0,29.24,North,0,0.0,0.0,97,-99.99,,,-99.99,,2015-09-01 12:14:00,
2015-09-01 07:23:00,66.0,65.0,29.24,North,0,0.0,0.0,97,-99.99,,,-99.99,,2015-09-01 12:23:00,
2015-09-01 07:34:00,66.0,65.0,29.24,North,0,0.0,0.0,97,-99.99,,,-99.99,,2015-09-01 12:34:00,
2015-09-01 07:44:00,66.0,65.0,29.24,North,0,0.0,0.0,97,-99.99,,,-99.99,,2015-09-01 12:44:00,
2015-09-01 08:34:00,68.0,67.0,29.25,South,169,8.0,11.0,97,-99.99,,,-99.99,,2015-09-01 13:34:00,
2015-09-01 08:44:00,68.0,67.0,29.25,South,169,8.0,11.0,97,-99.99,,,-99.99,,2015-09-01 13:44:00,
2015-09-01 08:54:00,68.0,67.0,29.25,South,169,8.0,11.0,97,-99.99,,,-99.99,,2015-09-01 13:54:00,
2015-09-01 09:03:00,68.0,67.0,29.25,South,169,8.0,11.0,97,-99.99,,,-99.99,,2015-09-01 14:03:00,
2015-09-01 09:12:00,70.0,69.0,29.25,SE,145,7.0,10.0,96,-99.99,,,-99.99,,2015-09-01 14:12:00,
2015-09-01 09:23:00,70.0,69.0,29.25,SE,145,7.0,10.0,96,-99.99,,,-99.99,,2015-09-01 14:23:00,
2015-09-01 09:33:00,70.0,69.0,29.25,SE,145,7.0,10.0,96,-99.99,,,-99.99,,2015-09-01 14:33:00,
2015-09-01 09:40:00,75.0,73.0,29.26,SSW,200,4.0,7.0,92,-99.99,,,-99.99,,2015-09-01 14:40:00,
2015-09-01 09:43:00,74.0,72.0,29.25,SW,217,5.0,8.0,93,-99.99,,,-99.99,,2015-09-01 14:43:00,
2015-09-01 09:53:00,74.0,72.0,29.25,SW,217,5.0,8.0,93,-99.99,,,-99.99,,2015-09-01 14:53:00,
2015-09-01 10:03:00,75.0,73.0,29.26,SSW,200,4.0,7.0,92,-99.99,,,-99.99,,2015-09-01 15:03:00,
2015-09-01 10:12:00,75.0,73.0,29.26,SSW,200,4.0,7.0,92,-99.99,,,-99.99,,2015-09-01 15:12:00,
2015-09-01 10:23:00,75.0,73.0,29.26,SSW,200,4.0,7.0,92,-99.99,,,-99.99,,2015-09-01 15:23:00,
2015-09-01 10:33:00,75.0,73.0,29.26,SSW,200,4.0,7.0,92,-99.99,,,-99.99,,2015-09-01 15:33:00,